sensor_id;sensor_type;location;lat;lon;timestamp;P1;durP1;ratioP1;P2;durP2;ratioP2
76107;SDS011;64834;52.516;10.528;2022-11-20T00:01:29;14.43;;;7.10;;
76107;SDS011;64834;52.516;10.528;2022-11-20T00:03:55;13.38;;;6.50;;
76107;SDS011;64834;52.516;10.528;2022-11-20T00:06:23;12.73;;;7.03;;
76107;SDS011;64834;52.516;10.528;2022-11-20T00:08:48;13.07;;;7.05;;
76107;SDS011;64834;52.516;10.528;2022-11-20T00:11:18;13.10;;;6.97;;
76107;SDS011;64834;52.516;10.528;2022-11-20T00:13:44;15.85;;;7.28;;
76107;SDS011;64834;52.516;10.528;2022-11-20T00:16:11;15.95;;;7.47;;
76107;SDS011;64834;52.516;10.528;2022-11-20T00:18:38;12.95;;;6.80;;
76107;SDS011;64834;52.516;10.528;2022-11-20T00:21:12;16.85;;;7.15;;
76107;SDS011;64834;52.516;10.528;2022-11-20T00:23:38;14.35;;;6.93;;
76107;SDS011;64834;52.516;10.528;2022-11-20T00:26:07;14.68;;;7.75;;
76107;SDS011;64834;52.516;10.528;2022-11-20T00:28:35;16.60;;;6.90;;
76107;SDS011;64834;52.516;10.528;2022-11-20T00:31:05;12.93;;;7.63;;
76107;SDS011;64834;52.516;10.528;2022-11-20T00:33:32;12.07;;;6.13;;
76107;SDS011;64834;52.516;10.528;2022-11-20T00:36:02;11.30;;;6.55;;
76107;SDS011;64834;52.516;10.528;2022-11-20T00:38:31;15.60;;;7.95;;
76107;SDS011;64834;52.516;10.528;2022-11-20T00:40:58;15.65;;;7.85;;
76107;SDS011;64834;52.516;10.528;2022-11-20T00:43:25;16.55;;;7.63;;
76107;SDS011;64834;52.516;10.528;2022-11-20T00:45:55;16.23;;;7.20;;
76107;SDS011;64834;52.516;10.528;2022-11-20T00:48:25;15.68;;;7.82;;
76107;SDS011;64834;52.516;10.528;2022-11-20T00:50:51;14.95;;;7.43;;
76107;SDS011;64834;52.516;10.528;2022-11-20T00:53:16;15.07;;;7.43;;
76107;SDS011;64834;52.516;10.528;2022-11-20T00:55:42;13.98;;;6.88;;
76107;SDS011;64834;52.516;10.528;2022-11-20T00:58:07;12.20;;;6.63;;
76107;SDS011;64834;52.516;10.528;2022-11-20T01:00:32;15.20;;;6.93;;
76107;SDS011;64834;52.516;10.528;2022-11-20T01:02:58;15.27;;;7.35;;
76107;SDS011;64834;52.516;10.528;2022-11-20T01:05:23;12.63;;;6.53;;
76107;SDS011;64834;52.516;10.528;2022-11-20T01:07:48;13.98;;;7.18;;
76107;SDS011;64834;52.516;10.528;2022-11-20T01:10:14;16.10;;;7.55;;
76107;SDS011;64834;52.516;10.528;2022-11-20T01:12:39;15.30;;;7.38;;
76107;SDS011;64834;52.516;10.528;2022-11-20T01:15:04;12.77;;;7.05;;
76107;SDS011;64834;52.516;10.528;2022-11-20T01:17:30;15.93;;;7.20;;
76107;SDS011;64834;52.516;10.528;2022-11-20T01:19:56;15.52;;;8.05;;
76107;SDS011;64834;52.516;10.528;2022-11-20T01:22:22;13.05;;;7.28;;
76107;SDS011;64834;52.516;10.528;2022-11-20T01:24:47;16.58;;;7.70;;
76107;SDS011;64834;52.516;10.528;2022-11-20T01:27:13;11.45;;;5.90;;
76107;SDS011;64834;52.516;10.528;2022-11-20T01:29:38;18.63;;;7.82;;
76107;SDS011;64834;52.516;10.528;2022-11-20T01:32:03;15.35;;;7.78;;
76107;SDS011;64834;52.516;10.528;2022-11-20T01:34:29;15.68;;;7.55;;
76107;SDS011;64834;52.516;10.528;2022-11-20T01:36:54;15.45;;;7.57;;
76107;SDS011;64834;52.516;10.528;2022-11-20T01:39:23;16.15;;;7.50;;
76107;SDS011;64834;52.516;10.528;2022-11-20T01:41:51;13.02;;;7.00;;
76107;SDS011;64834;52.516;10.528;2022-11-20T01:44:42;14.38;;;7.00;;
76107;SDS011;64834;52.516;10.528;2022-11-20T01:47:37;14.57;;;6.20;;
76107;SDS011;64834;52.516;10.528;2022-11-20T01:50:16;14.65;;;6.88;;
76107;SDS011;64834;52.516;10.528;2022-11-20T01:52:57;14.65;;;7.47;;
76107;SDS011;64834;52.516;10.528;2022-11-20T01:55:31;15.80;;;6.65;;
76107;SDS011;64834;52.516;10.528;2022-11-20T01:57:59;15.00;;;7.53;;
76107;SDS011;64834;52.516;10.528;2022-11-20T02:00:26;15.35;;;7.45;;
76107;SDS011;64834;52.516;10.528;2022-11-20T02:02:52;12.27;;;6.00;;
76107;SDS011;64834;52.516;10.528;2022-11-20T02:08:15;14.48;;;7.47;;
76107;SDS011;64834;52.516;10.528;2022-11-20T02:10:43;14.60;;;7.05;;
76107;SDS011;64834;52.516;10.528;2022-11-20T02:13:08;15.43;;;7.13;;
76107;SDS011;64834;52.516;10.528;2022-11-20T02:15:52;13.95;;;6.45;;
76107;SDS011;64834;52.516;10.528;2022-11-20T02:18:18;19.00;;;8.88;;
76107;SDS011;64834;52.516;10.528;2022-11-20T02:20:46;14.45;;;7.35;;
76107;SDS011;64834;52.516;10.528;2022-11-20T02:25:47;14.63;;;7.05;;
76107;SDS011;64834;52.516;10.528;2022-11-20T02:28:13;14.48;;;7.60;;
76107;SDS011;64834;52.516;10.528;2022-11-20T02:30:39;13.70;;;6.85;;
76107;SDS011;64834;52.516;10.528;2022-11-20T02:33:05;11.30;;;6.72;;
76107;SDS011;64834;52.516;10.528;2022-11-20T02:37:57;15.00;;;6.75;;
76107;SDS011;64834;52.516;10.528;2022-11-20T02:40:24;16.52;;;7.53;;
76107;SDS011;64834;52.516;10.528;2022-11-20T02:42:53;13.68;;;6.47;;
76107;SDS011;64834;52.516;10.528;2022-11-20T02:45:19;12.57;;;7.57;;
76107;SDS011;64834;52.516;10.528;2022-11-20T02:47:45;16.38;;;6.95;;
76107;SDS011;64834;52.516;10.528;2022-11-20T02:50:10;14.27;;;7.00;;
76107;SDS011;64834;52.516;10.528;2022-11-20T02:52:36;13.02;;;6.82;;
76107;SDS011;64834;52.516;10.528;2022-11-20T02:55:01;13.57;;;7.22;;
76107;SDS011;64834;52.516;10.528;2022-11-20T02:57:27;13.77;;;7.78;;
76107;SDS011;64834;52.516;10.528;2022-11-20T02:59:52;14.43;;;6.90;;
76107;SDS011;64834;52.516;10.528;2022-11-20T03:02:18;17.02;;;6.93;;
76107;SDS011;64834;52.516;10.528;2022-11-20T03:04:43;13.23;;;6.70;;
76107;SDS011;64834;52.516;10.528;2022-11-20T03:07:08;13.10;;;7.03;;
76107;SDS011;64834;52.516;10.528;2022-11-20T03:09:34;14.23;;;7.38;;
76107;SDS011;64834;52.516;10.528;2022-11-20T03:12:00;15.30;;;6.78;;
76107;SDS011;64834;52.516;10.528;2022-11-20T03:14:25;15.93;;;7.00;;
76107;SDS011;64834;52.516;10.528;2022-11-20T03:16:50;14.95;;;7.22;;
76107;SDS011;64834;52.516;10.528;2022-11-20T03:19:16;12.75;;;6.43;;
76107;SDS011;64834;52.516;10.528;2022-11-20T03:21:41;16.05;;;7.22;;
76107;SDS011;64834;52.516;10.528;2022-11-20T03:24:06;12.70;;;6.03;;
76107;SDS011;64834;52.516;10.528;2022-11-20T03:26:32;14.65;;;7.03;;
76107;SDS011;64834;52.516;10.528;2022-11-20T03:28:58;12.95;;;6.30;;
76107;SDS011;64834;52.516;10.528;2022-11-20T03:31:26;13.95;;;6.90;;
76107;SDS011;64834;52.516;10.528;2022-11-20T03:33:53;16.40;;;7.35;;
76107;SDS011;64834;52.516;10.528;2022-11-20T03:36:19;12.20;;;6.25;;
76107;SDS011;64834;52.516;10.528;2022-11-20T03:38:47;13.68;;;7.10;;
76107;SDS011;64834;52.516;10.528;2022-11-20T03:41:15;14.18;;;7.35;;
76107;SDS011;64834;52.516;10.528;2022-11-20T03:43:46;14.68;;;6.63;;
76107;SDS011;64834;52.516;10.528;2022-11-20T03:46:13;13.25;;;7.85;;
76107;SDS011;64834;52.516;10.528;2022-11-20T03:48:38;12.75;;;6.28;;
76107;SDS011;64834;52.516;10.528;2022-11-20T03:51:07;10.70;;;4.63;;
76107;SDS011;64834;52.516;10.528;2022-11-20T03:53:36;9.48;;;5.03;;
76107;SDS011;64834;52.516;10.528;2022-11-20T03:56:01;12.55;;;6.30;;
76107;SDS011;64834;52.516;10.528;2022-11-20T03:58:27;12.38;;;6.20;;
76107;SDS011;64834;52.516;10.528;2022-11-20T04:00:52;13.95;;;6.60;;
76107;SDS011;64834;52.516;10.528;2022-11-20T04:03:18;13.30;;;6.10;;
76107;SDS011;64834;52.516;10.528;2022-11-20T04:05:43;12.85;;;6.97;;
76107;SDS011;64834;52.516;10.528;2022-11-20T04:08:08;14.20;;;6.32;;
76107;SDS011;64834;52.516;10.528;2022-11-20T04:10:34;15.02;;;6.72;;
76107;SDS011;64834;52.516;10.528;2022-11-20T04:12:59;13.65;;;6.50;;
76107;SDS011;64834;52.516;10.528;2022-11-20T04:15:24;11.82;;;5.88;;
76107;SDS011;64834;52.516;10.528;2022-11-20T04:17:50;12.32;;;6.20;;
76107;SDS011;64834;52.516;10.528;2022-11-20T04:20:15;11.23;;;6.38;;
76107;SDS011;64834;52.516;10.528;2022-11-20T04:22:40;13.80;;;6.50;;
76107;SDS011;64834;52.516;10.528;2022-11-20T04:25:06;12.35;;;5.97;;
76107;SDS011;64834;52.516;10.528;2022-11-20T04:27:31;13.70;;;6.72;;
76107;SDS011;64834;52.516;10.528;2022-11-20T04:29:56;13.10;;;6.38;;
76107;SDS011;64834;52.516;10.528;2022-11-20T04:32:22;12.85;;;5.60;;
76107;SDS011;64834;52.516;10.528;2022-11-20T04:34:47;10.15;;;5.57;;
76107;SDS011;64834;52.516;10.528;2022-11-20T04:37:12;12.07;;;6.30;;
76107;SDS011;64834;52.516;10.528;2022-11-20T04:39:38;13.00;;;6.05;;
76107;SDS011;64834;52.516;10.528;2022-11-20T04:42:03;13.95;;;6.38;;
76107;SDS011;64834;52.516;10.528;2022-11-20T04:44:47;15.02;;;6.93;;
76107;SDS011;64834;52.516;10.528;2022-11-20T04:47:12;15.30;;;6.18;;
76107;SDS011;64834;52.516;10.528;2022-11-20T04:49:37;11.82;;;5.78;;
76107;SDS011;64834;52.516;10.528;2022-11-20T04:52:03;12.10;;;6.32;;
76107;SDS011;64834;52.516;10.528;2022-11-20T04:54:28;13.02;;;7.13;;
76107;SDS011;64834;52.516;10.528;2022-11-20T04:56:53;12.15;;;6.18;;
76107;SDS011;64834;52.516;10.528;2022-11-20T04:59:19;12.23;;;6.32;;
76107;SDS011;64834;52.516;10.528;2022-11-20T05:01:44;13.13;;;5.90;;
76107;SDS011;64834;52.516;10.528;2022-11-20T05:04:09;14.55;;;6.90;;
76107;SDS011;64834;52.516;10.528;2022-11-20T05:06:35;12.90;;;6.47;;
76107;SDS011;64834;52.516;10.528;2022-11-20T05:09:00;12.35;;;7.88;;
76107;SDS011;64834;52.516;10.528;2022-11-20T05:11:27;16.05;;;6.88;;
76107;SDS011;64834;52.516;10.528;2022-11-20T05:13:54;14.25;;;7.10;;
76107;SDS011;64834;52.516;10.528;2022-11-20T05:16:23;14.75;;;6.55;;
76107;SDS011;64834;52.516;10.528;2022-11-20T05:18:49;13.35;;;5.80;;
76107;SDS011;64834;52.516;10.528;2022-11-20T05:21:17;10.63;;;6.30;;
76107;SDS011;64834;52.516;10.528;2022-11-20T05:23:43;12.88;;;6.25;;
76107;SDS011;64834;52.516;10.528;2022-11-20T05:26:20;14.65;;;6.82;;
76107;SDS011;64834;52.516;10.528;2022-11-20T05:28:46;13.60;;;6.75;;
76107;SDS011;64834;52.516;10.528;2022-11-20T05:31:13;13.65;;;6.38;;
76107;SDS011;64834;52.516;10.528;2022-11-20T05:36:07;12.52;;;6.03;;
76107;SDS011;64834;52.516;10.528;2022-11-20T05:38:33;11.15;;;6.32;;
76107;SDS011;64834;52.516;10.528;2022-11-20T05:41:11;11.32;;;5.97;;
76107;SDS011;64834;52.516;10.528;2022-11-20T05:43:39;15.23;;;6.55;;
76107;SDS011;64834;52.516;10.528;2022-11-20T05:46:06;12.27;;;6.18;;
76107;SDS011;64834;52.516;10.528;2022-11-20T05:48:33;13.52;;;6.53;;
76107;SDS011;64834;52.516;10.528;2022-11-20T05:50:59;15.55;;;6.53;;
76107;SDS011;64834;52.516;10.528;2022-11-20T05:53:26;13.63;;;6.10;;
76107;SDS011;64834;52.516;10.528;2022-11-20T05:56:01;13.90;;;7.38;;
76107;SDS011;64834;52.516;10.528;2022-11-20T05:58:28;15.57;;;5.70;;
76107;SDS011;64834;52.516;10.528;2022-11-20T06:00:54;15.05;;;5.82;;
76107;SDS011;64834;52.516;10.528;2022-11-20T06:03:19;11.90;;;5.82;;
76107;SDS011;64834;52.516;10.528;2022-11-20T06:05:45;15.00;;;7.35;;
76107;SDS011;64834;52.516;10.528;2022-11-20T06:08:10;13.20;;;6.68;;
76107;SDS011;64834;52.516;10.528;2022-11-20T06:10:36;14.02;;;6.18;;
76107;SDS011;64834;52.516;10.528;2022-11-20T06:13:01;13.15;;;6.13;;
76107;SDS011;64834;52.516;10.528;2022-11-20T06:15:26;14.07;;;6.88;;
76107;SDS011;64834;52.516;10.528;2022-11-20T06:17:52;14.43;;;6.72;;
76107;SDS011;64834;52.516;10.528;2022-11-20T06:20:18;7.25;;;3.75;;
76107;SDS011;64834;52.516;10.528;2022-11-20T06:22:44;13.00;;;6.78;;
76107;SDS011;64834;52.516;10.528;2022-11-20T06:25:09;12.02;;;6.35;;
76107;SDS011;64834;52.516;10.528;2022-11-20T06:27:34;13.63;;;6.57;;
76107;SDS011;64834;52.516;10.528;2022-11-20T06:30:00;17.08;;;6.60;;
76107;SDS011;64834;52.516;10.528;2022-11-20T06:32:25;12.35;;;6.68;;
76107;SDS011;64834;52.516;10.528;2022-11-20T06:34:50;13.35;;;5.93;;
76107;SDS011;64834;52.516;10.528;2022-11-20T06:37:15;12.25;;;6.60;;
76107;SDS011;64834;52.516;10.528;2022-11-20T06:39:41;10.57;;;5.70;;
76107;SDS011;64834;52.516;10.528;2022-11-20T06:42:06;16.63;;;7.03;;
76107;SDS011;64834;52.516;10.528;2022-11-20T06:44:31;13.18;;;6.30;;
76107;SDS011;64834;52.516;10.528;2022-11-20T06:46:57;12.38;;;6.72;;
76107;SDS011;64834;52.516;10.528;2022-11-20T06:49:23;10.23;;;5.78;;
76107;SDS011;64834;52.516;10.528;2022-11-20T06:51:48;13.20;;;6.25;;
76107;SDS011;64834;52.516;10.528;2022-11-20T06:54:13;12.32;;;5.35;;
76107;SDS011;64834;52.516;10.528;2022-11-20T06:56:39;16.88;;;6.35;;
76107;SDS011;64834;52.516;10.528;2022-11-20T06:59:05;15.13;;;6.85;;
76107;SDS011;64834;52.516;10.528;2022-11-20T07:01:31;13.18;;;6.35;;
76107;SDS011;64834;52.516;10.528;2022-11-20T07:03:56;14.00;;;6.03;;
76107;SDS011;64834;52.516;10.528;2022-11-20T07:06:21;14.27;;;6.65;;
76107;SDS011;64834;52.516;10.528;2022-11-20T07:08:47;11.43;;;6.65;;
76107;SDS011;64834;52.516;10.528;2022-11-20T07:11:12;10.27;;;5.10;;
76107;SDS011;64834;52.516;10.528;2022-11-20T07:13:37;10.48;;;5.03;;
76107;SDS011;64834;52.516;10.528;2022-11-20T07:16:04;14.13;;;6.32;;
76107;SDS011;64834;52.516;10.528;2022-11-20T07:18:31;13.40;;;5.78;;
76107;SDS011;64834;52.516;10.528;2022-11-20T07:20:59;11.02;;;5.38;;
76107;SDS011;64834;52.516;10.528;2022-11-20T07:23:26;14.57;;;6.63;;
76107;SDS011;64834;52.516;10.528;2022-11-20T07:25:51;12.40;;;6.55;;
76107;SDS011;64834;52.516;10.528;2022-11-20T07:28:16;10.20;;;4.43;;
76107;SDS011;64834;52.516;10.528;2022-11-20T07:30:42;15.15;;;6.03;;
76107;SDS011;64834;52.516;10.528;2022-11-20T07:33:07;13.18;;;6.28;;
76107;SDS011;64834;52.516;10.528;2022-11-20T07:35:32;14.35;;;6.00;;
76107;SDS011;64834;52.516;10.528;2022-11-20T07:37:58;9.38;;;5.30;;
76107;SDS011;64834;52.516;10.528;2022-11-20T07:40:23;13.52;;;7.10;;
76107;SDS011;64834;52.516;10.528;2022-11-20T07:42:49;12.10;;;6.25;;
76107;SDS011;64834;52.516;10.528;2022-11-20T07:45:16;11.93;;;5.88;;
76107;SDS011;64834;52.516;10.528;2022-11-20T07:47:45;12.50;;;6.00;;
76107;SDS011;64834;52.516;10.528;2022-11-20T07:50:11;12.43;;;5.82;;
76107;SDS011;64834;52.516;10.528;2022-11-20T07:52:37;12.55;;;5.72;;
76107;SDS011;64834;52.516;10.528;2022-11-20T07:55:03;11.50;;;5.70;;
76107;SDS011;64834;52.516;10.528;2022-11-20T07:57:28;11.57;;;5.47;;
76107;SDS011;64834;52.516;10.528;2022-11-20T07:59:53;11.43;;;5.78;;
76107;SDS011;64834;52.516;10.528;2022-11-20T08:02:19;12.57;;;5.57;;
76107;SDS011;64834;52.516;10.528;2022-11-20T08:04:44;12.50;;;5.63;;
76107;SDS011;64834;52.516;10.528;2022-11-20T08:07:09;8.93;;;4.95;;
76107;SDS011;64834;52.516;10.528;2022-11-20T08:09:35;12.63;;;5.97;;
76107;SDS011;64834;52.516;10.528;2022-11-20T08:12:00;11.00;;;5.32;;
76107;SDS011;64834;52.516;10.528;2022-11-20T08:14:44;10.48;;;5.28;;
76107;SDS011;64834;52.516;10.528;2022-11-20T08:17:09;8.93;;;3.95;;
76107;SDS011;64834;52.516;10.528;2022-11-20T08:19:35;11.32;;;5.80;;
76107;SDS011;64834;52.516;10.528;2022-11-20T08:22:00;13.60;;;5.78;;
76107;SDS011;64834;52.516;10.528;2022-11-20T08:24:25;10.30;;;5.18;;
76107;SDS011;64834;52.516;10.528;2022-11-20T08:26:51;11.05;;;5.57;;
76107;SDS011;64834;52.516;10.528;2022-11-20T08:29:17;9.45;;;5.78;;
76107;SDS011;64834;52.516;10.528;2022-11-20T08:31:42;11.40;;;5.05;;
76107;SDS011;64834;52.516;10.528;2022-11-20T08:34:07;9.85;;;5.32;;
76107;SDS011;64834;52.516;10.528;2022-11-20T08:36:33;11.00;;;5.45;;
76107;SDS011;64834;52.516;10.528;2022-11-20T08:38:59;8.23;;;4.57;;
76107;SDS011;64834;52.516;10.528;2022-11-20T08:41:25;10.77;;;4.90;;
76107;SDS011;64834;52.516;10.528;2022-11-20T08:43:58;10.43;;;4.80;;
76107;SDS011;64834;52.516;10.528;2022-11-20T08:46:26;10.07;;;4.70;;
76107;SDS011;64834;52.516;10.528;2022-11-20T08:48:53;6.65;;;3.65;;
76107;SDS011;64834;52.516;10.528;2022-11-20T08:51:19;10.57;;;4.70;;
76107;SDS011;64834;52.516;10.528;2022-11-20T08:53:44;9.23;;;4.70;;
76107;SDS011;64834;52.516;10.528;2022-11-20T08:56:11;9.63;;;4.32;;
76107;SDS011;64834;52.516;10.528;2022-11-20T08:58:37;7.78;;;4.18;;
76107;SDS011;64834;52.516;10.528;2022-11-20T09:01:03;9.43;;;4.45;;
76107;SDS011;64834;52.516;10.528;2022-11-20T09:03:29;9.88;;;5.15;;
76107;SDS011;64834;52.516;10.528;2022-11-20T09:05:58;8.23;;;4.13;;
76107;SDS011;64834;52.516;10.528;2022-11-20T09:08:24;7.47;;;4.45;;
76107;SDS011;64834;52.516;10.528;2022-11-20T09:10:53;9.40;;;4.78;;
76107;SDS011;64834;52.516;10.528;2022-11-20T09:13:20;7.28;;;3.95;;
76107;SDS011;64834;52.516;10.528;2022-11-20T09:15:46;8.70;;;4.15;;
76107;SDS011;64834;52.516;10.528;2022-11-20T09:18:11;7.05;;;3.97;;
76107;SDS011;64834;52.516;10.528;2022-11-20T09:20:36;10.15;;;5.00;;
76107;SDS011;64834;52.516;10.528;2022-11-20T09:23:02;8.68;;;4.70;;
76107;SDS011;64834;52.516;10.528;2022-11-20T09:25:27;8.30;;;4.30;;
76107;SDS011;64834;52.516;10.528;2022-11-20T09:27:56;10.10;;;4.10;;
76107;SDS011;64834;52.516;10.528;2022-11-20T09:30:22;7.85;;;4.60;;
76107;SDS011;64834;52.516;10.528;2022-11-20T09:32:48;7.88;;;4.20;;
76107;SDS011;64834;52.516;10.528;2022-11-20T09:35:13;9.52;;;4.15;;
76107;SDS011;64834;52.516;10.528;2022-11-20T09:37:39;8.20;;;3.85;;
76107;SDS011;64834;52.516;10.528;2022-11-20T09:40:05;9.98;;;4.43;;
76107;SDS011;64834;52.516;10.528;2022-11-20T09:42:52;8.10;;;4.03;;
76107;SDS011;64834;52.516;10.528;2022-11-20T09:51:25;8.90;;;3.65;;
76107;SDS011;64834;52.516;10.528;2022-11-20T09:56:49;6.25;;;2.90;;
76107;SDS011;64834;52.516;10.528;2022-11-20T09:59:23;4.03;;;3.00;;
76107;SDS011;64834;52.516;10.528;2022-11-20T10:01:57;9.40;;;4.35;;
76107;SDS011;64834;52.516;10.528;2022-11-20T10:04:24;2.58;;;1.35;;
76107;SDS011;64834;52.516;10.528;2022-11-20T10:07:00;3.72;;;2.22;;
76107;SDS011;64834;52.516;10.528;2022-11-20T10:09:30;8.48;;;3.88;;
76107;SDS011;64834;52.516;10.528;2022-11-20T10:14:34;7.90;;;3.08;;
76107;SDS011;64834;52.516;10.528;2022-11-20T10:17:16;9.13;;;5.00;;
76107;SDS011;64834;52.516;10.528;2022-11-20T10:20:07;6.80;;;2.70;;
76107;SDS011;64834;52.516;10.528;2022-11-20T10:25:24;6.90;;;4.10;;
76107;SDS011;64834;52.516;10.528;2022-11-20T10:31:33;6.57;;;3.58;;
76107;SDS011;64834;52.516;10.528;2022-11-20T10:34:03;9.60;;;5.38;;
76107;SDS011;64834;52.516;10.528;2022-11-20T10:36:38;8.65;;;4.68;;
76107;SDS011;64834;52.516;10.528;2022-11-20T10:39:18;9.27;;;4.40;;
76107;SDS011;64834;52.516;10.528;2022-11-20T10:41:50;6.15;;;3.60;;
76107;SDS011;64834;52.516;10.528;2022-11-20T10:44:19;7.25;;;4.22;;
76107;SDS011;64834;52.516;10.528;2022-11-20T10:47:05;7.22;;;3.72;;
76107;SDS011;64834;52.516;10.528;2022-11-20T10:49:37;8.80;;;4.35;;
76107;SDS011;64834;52.516;10.528;2022-11-20T11:02:33;6.70;;;3.42;;
76107;SDS011;64834;52.516;10.528;2022-11-20T11:08:10;9.25;;;4.22;;
76107;SDS011;64834;52.516;10.528;2022-11-20T11:13:23;8.90;;;3.72;;
76107;SDS011;64834;52.516;10.528;2022-11-20T11:15:50;8.65;;;4.28;;
76107;SDS011;64834;52.516;10.528;2022-11-20T11:18:22;10.27;;;4.95;;
76107;SDS011;64834;52.516;10.528;2022-11-20T11:21:02;5.03;;;2.80;;
76107;SDS011;64834;52.516;10.528;2022-11-20T11:23:34;7.60;;;4.13;;
76107;SDS011;64834;52.516;10.528;2022-11-20T11:26:03;7.30;;;3.85;;
76107;SDS011;64834;52.516;10.528;2022-11-20T11:28:30;4.68;;;2.53;;
76107;SDS011;64834;52.516;10.528;2022-11-20T11:30:55;4.07;;;2.30;;
76107;SDS011;64834;52.516;10.528;2022-11-20T11:33:22;6.57;;;3.22;;
76107;SDS011;64834;52.516;10.528;2022-11-20T11:36:03;5.07;;;2.85;;
76107;SDS011;64834;52.516;10.528;2022-11-20T11:38:39;5.10;;;3.20;;
76107;SDS011;64834;52.516;10.528;2022-11-20T11:41:08;5.20;;;2.60;;
76107;SDS011;64834;52.516;10.528;2022-11-20T11:43:49;6.90;;;4.00;;
76107;SDS011;64834;52.516;10.528;2022-11-20T11:46:43;8.95;;;4.25;;
76107;SDS011;64834;52.516;10.528;2022-11-20T11:49:18;8.60;;;4.15;;
76107;SDS011;64834;52.516;10.528;2022-11-20T11:57:59;4.35;;;3.10;;
76107;SDS011;64834;52.516;10.528;2022-11-20T12:08:14;12.43;;;5.70;;
76107;SDS011;64834;52.516;10.528;2022-11-20T12:10:48;12.50;;;6.10;;
76107;SDS011;64834;52.516;10.528;2022-11-20T12:13:30;12.25;;;6.10;;
76107;SDS011;64834;52.516;10.528;2022-11-20T12:16:05;12.32;;;5.68;;
76107;SDS011;64834;52.516;10.528;2022-11-20T12:18:36;8.68;;;4.65;;
76107;SDS011;64834;52.516;10.528;2022-11-20T12:26:55;7.97;;;4.63;;
76107;SDS011;64834;52.516;10.528;2022-11-20T12:32:32;9.60;;;5.07;;
76107;SDS011;64834;52.516;10.528;2022-11-20T12:38:12;12.07;;;6.15;;
76107;SDS011;64834;52.516;10.528;2022-11-20T12:41:12;10.15;;;5.43;;
76107;SDS011;64834;52.516;10.528;2022-11-20T12:47:22;9.15;;;5.03;;
76107;SDS011;64834;52.516;10.528;2022-11-20T12:52:30;10.15;;;5.65;;
76107;SDS011;64834;52.516;10.528;2022-11-20T12:55:09;12.05;;;5.85;;
76107;SDS011;64834;52.516;10.528;2022-11-20T13:00:23;7.35;;;4.32;;
76107;SDS011;64834;52.516;10.528;2022-11-20T13:08:29;4.20;;;2.08;;
76107;SDS011;64834;52.516;10.528;2022-11-20T13:11:01;12.43;;;4.30;;
76107;SDS011;64834;52.516;10.528;2022-11-20T13:18:40;10.25;;;5.85;;
76107;SDS011;64834;52.516;10.528;2022-11-20T13:24:49;8.50;;;4.05;;
76107;SDS011;64834;52.516;10.528;2022-11-20T13:27:16;9.43;;;4.93;;
76107;SDS011;64834;52.516;10.528;2022-11-20T13:29:45;13.63;;;5.65;;
76107;SDS011;64834;52.516;10.528;2022-11-20T13:32:14;10.30;;;5.72;;
76107;SDS011;64834;52.516;10.528;2022-11-20T13:42:35;7.10;;;3.70;;
76107;SDS011;64834;52.516;10.528;2022-11-20T13:45:09;4.45;;;2.55;;
76107;SDS011;64834;52.516;10.528;2022-11-20T13:47:49;6.15;;;2.70;;
76107;SDS011;64834;52.516;10.528;2022-11-20T13:50:16;4.63;;;2.35;;
76107;SDS011;64834;52.516;10.528;2022-11-20T13:55:54;2.80;;;1.23;;
76107;SDS011;64834;52.516;10.528;2022-11-20T13:58:23;6.47;;;2.97;;
76107;SDS011;64834;52.516;10.528;2022-11-20T14:03:53;4.45;;;2.42;;
76107;SDS011;64834;52.516;10.528;2022-11-20T14:06:26;3.72;;;1.83;;
76107;SDS011;64834;52.516;10.528;2022-11-20T14:11:20;6.93;;;3.08;;
76107;SDS011;64834;52.516;10.528;2022-11-20T14:14:00;6.40;;;3.25;;
76107;SDS011;64834;52.516;10.528;2022-11-20T14:16:38;2.00;;;1.27;;
76107;SDS011;64834;52.516;10.528;2022-11-20T14:21:44;7.70;;;3.83;;
76107;SDS011;64834;52.516;10.528;2022-11-20T14:24:11;8.80;;;4.05;;
76107;SDS011;64834;52.516;10.528;2022-11-20T14:26:37;7.28;;;3.58;;
76107;SDS011;64834;52.516;10.528;2022-11-20T14:29:12;7.57;;;4.05;;
76107;SDS011;64834;52.516;10.528;2022-11-20T14:31:39;6.32;;;3.20;;
76107;SDS011;64834;52.516;10.528;2022-11-20T14:34:10;7.95;;;4.50;;
76107;SDS011;64834;52.516;10.528;2022-11-20T14:37:02;8.23;;;4.40;;
76107;SDS011;64834;52.516;10.528;2022-11-20T14:39:30;7.47;;;3.33;;
76107;SDS011;64834;52.516;10.528;2022-11-20T14:41:59;8.18;;;3.92;;
76107;SDS011;64834;52.516;10.528;2022-11-20T14:44:29;7.57;;;4.10;;
76107;SDS011;64834;52.516;10.528;2022-11-20T14:46:57;7.03;;;3.78;;
76107;SDS011;64834;52.516;10.528;2022-11-20T14:49:25;6.60;;;3.45;;
76107;SDS011;64834;52.516;10.528;2022-11-20T14:51:59;10.90;;;4.97;;
76107;SDS011;64834;52.516;10.528;2022-11-20T14:54:26;6.68;;;3.25;;
76107;SDS011;64834;52.516;10.528;2022-11-20T14:56:57;9.82;;;4.13;;
76107;SDS011;64834;52.516;10.528;2022-11-20T14:59:30;9.73;;;5.07;;
76107;SDS011;64834;52.516;10.528;2022-11-20T15:02:05;10.82;;;4.22;;
76107;SDS011;64834;52.516;10.528;2022-11-20T15:04:44;8.82;;;3.90;;
76107;SDS011;64834;52.516;10.528;2022-11-20T15:07:23;9.57;;;4.25;;
76107;SDS011;64834;52.516;10.528;2022-11-20T15:10:26;7.25;;;3.92;;
76107;SDS011;64834;52.516;10.528;2022-11-20T15:12:49;9.27;;;4.55;;
76107;SDS011;64834;52.516;10.528;2022-11-20T15:15:25;11.38;;;4.65;;
76107;SDS011;64834;52.516;10.528;2022-11-20T15:20:17;7.33;;;4.27;;
76107;SDS011;64834;52.516;10.528;2022-11-20T15:22:43;11.05;;;3.97;;
76107;SDS011;64834;52.516;10.528;2022-11-20T15:25:12;10.30;;;5.05;;
76107;SDS011;64834;52.516;10.528;2022-11-20T15:27:42;10.70;;;4.68;;
76107;SDS011;64834;52.516;10.528;2022-11-20T15:30:15;9.02;;;5.47;;
76107;SDS011;64834;52.516;10.528;2022-11-20T15:35:08;5.60;;;1.92;;
76107;SDS011;64834;52.516;10.528;2022-11-20T15:37:34;5.50;;;2.28;;
76107;SDS011;64834;52.516;10.528;2022-11-20T15:40:00;7.65;;;3.90;;
76107;SDS011;64834;52.516;10.528;2022-11-20T15:42:26;7.65;;;4.05;;
76107;SDS011;64834;52.516;10.528;2022-11-20T15:44:51;4.80;;;2.03;;
76107;SDS011;64834;52.516;10.528;2022-11-20T15:47:16;7.38;;;2.95;;
76107;SDS011;64834;52.516;10.528;2022-11-20T15:49:42;7.10;;;3.70;;
76107;SDS011;64834;52.516;10.528;2022-11-20T15:52:08;5.55;;;3.53;;
76107;SDS011;64834;52.516;10.528;2022-11-20T15:54:34;7.10;;;3.40;;
76107;SDS011;64834;52.516;10.528;2022-11-20T15:56:59;6.75;;;3.30;;
76107;SDS011;64834;52.516;10.528;2022-11-20T15:59:25;5.20;;;3.20;;
76107;SDS011;64834;52.516;10.528;2022-11-20T16:01:51;5.38;;;2.33;;
76107;SDS011;64834;52.516;10.528;2022-11-20T16:04:16;6.80;;;3.92;;
76107;SDS011;64834;52.516;10.528;2022-11-20T16:06:43;9.32;;;5.00;;
76107;SDS011;64834;52.516;10.528;2022-11-20T16:09:08;7.57;;;4.35;;
76107;SDS011;64834;52.516;10.528;2022-11-20T16:11:34;9.75;;;4.13;;
76107;SDS011;64834;52.516;10.528;2022-11-20T16:14:05;8.57;;;4.00;;
76107;SDS011;64834;52.516;10.528;2022-11-20T16:16:49;13.52;;;5.18;;
76107;SDS011;64834;52.516;10.528;2022-11-20T16:19:15;8.70;;;4.25;;
76107;SDS011;64834;52.516;10.528;2022-11-20T16:21:42;6.22;;;2.88;;
76107;SDS011;64834;52.516;10.528;2022-11-20T16:24:08;6.80;;;3.33;;
76107;SDS011;64834;52.516;10.528;2022-11-20T16:26:36;12.63;;;5.80;;
76107;SDS011;64834;52.516;10.528;2022-11-20T16:29:03;13.65;;;5.53;;
76107;SDS011;64834;52.516;10.528;2022-11-20T16:31:29;12.90;;;5.97;;